Time;durP1;ratioP1;P1;durP2;ratioP2;P2;SDS_P1;SDS_P2;PMS_P1;PMS_P2;Temp;Humidity;BMP_temperature;BMP_pressure;BME280_temperature;BME280_humidity;BME280_pressure;Samples;Min_cycle;Max_cycle;Signal;HPM_P1;HPM_P2
2022/05/29 00:01:08;;;;;;;2.03;1.77;;;;;;;12.74;66.79;97898.09;5096351;28;20221;-72
2022/05/29 00:03:35;;;;;;;3.10;1.70;;;;;;;12.71;67.00;97900.16;5096153;28;20581;-72
2022/05/29 00:06:04;;;;;;;3.87;2.13;;;;;;;12.61;67.91;97899.22;5095864;28;20213;-72
2022/05/29 00:08:33;;;;;;;3.43;2.00;;;;;;;12.62;67.19;97895.59;5098587;28;20212;-73
2022/05/29 00:11:01;;;;;;;3.77;2.20;;;;;;;12.63;66.86;97886.66;5096038;28;20216;-72
2022/05/29 00:13:28;;;;;;;3.50;1.93;;;;;;;12.52;67.56;97892.00;5094318;28;20581;-71
2022/05/29 00:15:55;;;;;;;3.10;2.10;;;;;;;12.55;67.23;97895.28;5096056;28;20583;-72
2022/05/29 00:18:22;;;;;;;2.87;1.90;;;;;;;12.62;67.32;97890.28;5107589;28;20218;-72
2022/05/29 00:20:51;;;;;;;2.93;1.93;;;;;;;12.57;67.06;97890.69;5110535;28;20216;-72
2022/05/29 00:23:18;;;;;;;3.57;2.00;;;;;;;12.56;67.92;97896.09;5108280;28;20241;-72
2022/05/29 00:25:46;;;;;;;3.60;1.93;;;;;;;12.72;68.20;97886.75;5099582;28;20241;-72
2022/05/29 00:28:13;;;;;;;3.77;2.50;;;;;;;12.76;67.75;97884.69;5111776;28;20209;-72
2022/05/29 00:30:40;;;;;;;2.93;1.93;;;;;;;12.78;67.11;97885.44;5104493;28;20579;-72
2022/05/29 00:33:07;;;;;;;2.77;1.80;;;;;;;12.75;66.43;97883.03;5099645;28;20300;-73
2022/05/29 00:35:33;;;;;;;3.93;1.87;;;;;;;12.78;65.83;97886.25;5099612;28;20220;-72
2022/05/29 00:38:00;;;;;;;2.97;1.97;;;;;;;12.83;65.31;97877.97;5102393;28;20675;-72
2022/05/29 00:40:33;;;;;;;2.10;1.80;;;;;;;12.88;64.37;97881.91;5097902;28;20659;-73
2022/05/29 00:43:00;;;;;;;1.73;1.60;;;;;;;12.84;64.36;97876.97;5099418;28;20221;-73
2022/05/29 00:45:29;;;;;;;2.63;1.63;;;;;;;12.86;63.32;97883.00;5099178;28;20249;-72
2022/05/29 00:47:56;;;;;;;2.30;1.63;;;;;;;12.86;63.44;97872.38;5111737;28;20614;-72
2022/05/29 00:50:23;;;;;;;2.30;1.80;;;;;;;12.92;63.23;97882.50;5114423;28;20211;-72
2022/05/29 00:52:51;;;;;;;3.97;2.00;;;;;;;12.99;63.15;97873.09;5114122;28;20679;-72
2022/05/29 00:55:22;;;;;;;2.70;1.70;;;;;;;12.91;63.56;97873.69;5114476;28;20548;-72
2022/05/29 00:57:54;;;;;;;3.20;2.00;;;;;;;12.90;63.10;97868.53;5112060;28;20211;-72
2022/05/29 01:00:24;;;;;;;3.07;1.70;;;;;;;12.88;63.47;97865.13;5111304;28;20268;-72
2022/05/29 01:02:53;;;;;;;2.73;1.60;;;;;;;12.86;63.45;97859.13;5111363;28;20215;-72
2022/05/29 01:05:22;;;;;;;1.97;1.67;;;;;;;12.85;64.40;97860.09;5109256;28;20239;-73
2022/05/29 01:07:53;;;;;;;2.30;1.60;;;;;;;12.83;65.02;97862.03;5107983;28;20213;-72
2022/05/29 01:10:22;;;;;;;4.10;1.80;;;;;;;12.81;63.56;97863.97;5109255;28;20213;-72
2022/05/29 01:12:55;;;;;;;2.33;1.53;;;;;;;12.73;64.10;97863.75;5104547;28;20214;-71
2022/05/29 01:15:31;;;;;;;1.80;1.40;;;;;;;12.70;63.52;97861.34;5102055;28;20237;-72
2022/05/29 01:18:19;;;;;;;3.43;1.73;;;;;;;12.68;64.88;97857.97;5099090;28;20222;-71
2022/05/29 01:21:04;;;;;;;3.20;1.70;;;;;;;12.60;64.45;97855.94;5099100;28;20224;-71
2022/05/29 01:24:00;;;;;;;2.33;1.67;;;;;;;12.55;63.41;97857.31;5113034;28;20275;-71
2022/05/29 01:26:58;;;;;;;3.87;1.90;;;;;;;12.57;62.67;97858.00;5111480;28;20219;-71
2022/05/29 01:29:34;;;;;;;2.70;1.70;;;;;;;12.55;62.92;97852.84;5112100;28;20218;-71
2022/05/29 01:32:06;;;;;;;2.27;1.40;;;;;;;12.55;62.91;97846.69;5105188;28;20222;-70
2022/05/29 01:34:40;;;;;;;2.57;1.70;;;;;;;12.57;61.53;97844.75;5112660;28;20223;-70
2022/05/29 01:37:16;;;;;;;2.13;1.83;;;;;;;12.55;61.50;97842.25;5112622;28;20216;-70
2022/05/29 01:39:52;;;;;;;2.73;1.83;;;;;;;12.49;61.38;97840.09;5113626;28;20221;-70
2022/05/29 01:42:25;;;;;;;2.13;1.60;;;;;;;12.44;62.49;97833.47;5113284;28;20212;-70
2022/05/29 01:45:00;;;;;;;2.40;1.57;;;;;;;12.31;63.19;97831.00;5110253;28;20257;-70
2022/05/29 01:47:33;;;;;;;3.13;1.60;;;;;;;12.23;63.49;97828.09;5113366;28;20212;-71
2022/05/29 01:50:05;;;;;;;3.50;2.10;;;;;;;12.13;63.54;97827.16;5113288;28;20220;-70
2022/05/29 01:52:36;;;;;;;1.57;1.43;;;;;;;12.07;63.71;97826.81;5111473;28;20215;-70
2022/05/29 01:55:08;;;;;;;1.83;1.47;;;;;;;12.00;63.61;97818.53;5112894;28;20225;-71
2022/05/29 01:57:37;;;;;;;2.70;1.60;;;;;;;11.94;63.42;97812.84;5111488;28;20219;-71
2022/05/29 02:00:09;;;;;;;1.77;1.60;;;;;;;11.87;64.22;97807.19;5113135;28;20216;-70
2022/05/29 02:02:39;;;;;;;2.53;1.60;;;;;;;11.88;63.80;97813.34;5110064;28;20548;-70
2022/05/29 02:05:10;;;;;;;2.20;1.60;;;;;;;11.93;63.06;97805.88;5112568;28;20709;-71
2022/05/29 02:07:52;;;;;;;2.30;1.50;;;;;;;11.87;63.44;97801.06;5112976;28;20219;-71
2022/05/29 02:10:25;;;;;;;2.00;1.40;;;;;;;11.75;63.59;97808.16;5110304;28;20577;-70
2022/05/29 02:12:57;;;;;;;3.97;1.53;;;;;;;11.73;63.81;97798.69;5097969;28;20246;-70
2022/05/29 02:15:32;;;;;;;3.07;1.40;;;;;;;11.60;65.02;97795.28;5097861;28;20220;-70
2022/05/29 02:18:02;;;;;;;1.90;1.37;;;;;;;11.59;64.89;97796.25;5098660;28;20218;-70
2022/05/29 02:20:37;;;;;;;5.30;1.53;;;;;;;11.54;64.90;97790.44;5099088;28;20282;-70
2022/05/29 02:23:10;;;;;;;2.13;1.33;;;;;;;11.44;66.08;97787.69;5097164;28;20626;-70
2022/05/29 02:25:40;;;;;;;2.17;1.70;;;;;;;11.41;66.55;97777.34;5097115;28;20241;-70
2022/05/29 02:28:10;;;;;;;2.33;1.40;;;;;;;11.45;67.09;97783.25;5100426;28;20218;-71
2022/05/29 02:30:45;;;;;;;4.53;2.03;;;;;;;11.46;67.06;97784.91;5107339;28;20210;-70
2022/05/29 02:33:19;;;;;;;1.87;1.40;;;;;;;11.55;66.87;97786.88;5104852;28;20218;-70
2022/05/29 02:35:54;;;;;;;2.83;1.63;;;;;;;11.61;66.57;97786.41;5099022;28;20216;-71
2022/05/29 02:38:29;;;;;;;2.33;1.60;;;;;;;11.61;67.00;97781.94;5112112;28;20215;-70
2022/05/29 02:41:00;;;;;;;2.70;1.50;;;;;;;11.74;66.43;97781.84;5105969;28;20587;-71
2022/05/29 02:43:36;;;;;;;4.87;1.60;;;;;;;11.84;66.25;97774.81;5097336;28;20231;-71
2022/05/29 02:46:13;;;;;;;4.33;1.63;;;;;;;11.80;66.24;97778.69;5110450;28;20239;-71
2022/05/29 02:48:47;;;;;;;2.17;1.50;;;;;;;11.83;66.51;97774.00;5112065;28;20214;-71
2022/05/29 02:51:22;;;;;;;3.40;1.70;;;;;;;11.85;66.50;97777.34;5110113;28;20680;-71
2022/05/29 02:53:49;;;;;;;3.47;1.70;;;;;;;11.86;66.53;97770.25;5110949;28;20218;-70
2022/05/29 02:56:16;;;;;;;2.00;1.43;;;;;;;11.87;66.31;97770.13;5097248;28;20212;-70
2022/05/29 02:58:46;;;;;;;1.60;1.43;;;;;;;11.86;67.34;97768.44;5097216;28;20217;-70
2022/05/29 03:01:27;;;;;;;2.50;1.50;;;;;;;11.88;66.93;97765.69;5097387;28;20221;-70
2022/05/29 03:04:24;;;;;;;4.93;1.83;;;;;;;11.92;66.75;97761.84;5096970;28;20240;-71
2022/05/29 03:06:54;;;;;;;3.93;1.80;;;;;;;11.89;67.38;97762.91;5096862;28;20288;-71
2022/05/29 03:09:33;;;;;;;2.63;1.60;;;;;;;11.90;67.92;97761.09;5099772;28;20579;-71
2022/05/29 03:12:01;;;;;;;3.60;1.93;;;;;;;12.01;66.85;97761.06;5096719;28;20218;-71
2022/05/29 03:14:35;;;;;;;4.27;1.97;;;;;;;11.96;65.68;97752.66;5096613;28;20700;-71
2022/05/29 03:17:14;;;;;;;3.37;2.20;;;;;;;11.87;66.67;97753.41;5096299;28;20216;-71
2022/05/29 03:19:51;;;;;;;2.30;1.60;;;;;;;11.83;67.02;97750.16;5096782;28;20230;-71
2022/05/29 03:22:28;;;;;;;2.60;1.63;;;;;;;11.84;67.08;97748.34;5096774;28;20230;-71
2022/05/29 03:25:02;;;;;;;2.13;1.90;;;;;;;11.89;67.73;97751.47;5097949;28;20597;-71
2022/05/29 03:27:32;;;;;;;3.27;1.70;;;;;;;11.91;66.70;97760.13;5096638;28;20211;-71
2022/05/29 03:30:05;;;;;;;2.77;1.70;;;;;;;11.86;67.13;97757.03;5102462;28;20272;-71
2022/05/29 03:32:35;;;;;;;2.17;1.80;;;;;;;11.82;67.23;97755.56;5100735;28;20247;-71
2022/05/29 03:35:20;;;;;;;3.13;1.70;;;;;;;11.70;67.75;97759.19;5099218;28;20587;-70
2022/05/29 03:37:47;;;;;;;2.53;2.00;;;;;;;11.74;67.87;97756.19;5096428;28;20221;-70
2022/05/29 03:40:14;;;;;;;4.73;1.80;;;;;;;11.60;68.18;97761.75;5096143;28;20689;-71
2022/05/29 03:42:40;;;;;;;3.20;1.70;;;;;;;11.59;68.48;97767.16;5096297;28;20585;-70
2022/05/29 03:45:08;;;;;;;4.97;1.67;;;;;;;11.53;68.98;97764.94;5097091;28;20248;-71
2022/05/29 03:47:36;;;;;;;3.30;1.80;;;;;;;11.51;69.71;97756.28;5096268;28;20255;-70
2022/05/29 03:50:03;;;;;;;3.27;1.80;;;;;;;11.47;71.04;97760.13;5095918;28;20217;-70
2022/05/29 03:52:31;;;;;;;3.67;1.77;;;;;;;11.48;70.29;97761.81;5098180;28;20223;-71
2022/05/29 03:54:58;;;;;;;2.63;1.60;;;;;;;11.21;71.98;97769.28;5096526;28;20221;-71
2022/05/29 03:57:24;;;;;;;3.47;2.03;;;;;;;11.01;73.78;97759.41;5095354;28;20218;-71
2022/05/29 03:59:51;;;;;;;2.33;1.80;;;;;;;10.83;75.53;97758.16;5096156;28;20220;-71
2022/05/29 04:02:18;;;;;;;3.80;2.20;;;;;;;10.66;77.79;97772.66;5097216;28;20252;-71
2022/05/29 04:04:46;;;;;;;3.70;1.90;;;;;;;10.47;79.41;97756.47;5097378;28;20222;-70
2022/05/29 04:07:12;;;;;;;2.37;1.80;;;;;;;10.31;81.37;97757.72;5098538;28;20726;-71
2022/05/29 04:12:23;;;;;;;3.57;2.07;;;;;;;10.03;82.08;97750.13;5098737;28;20290;-72
2022/05/29 04:14:50;;;;;;;2.63;1.83;;;;;;;10.04;82.23;97757.13;5096052;28;20276;-70
2022/05/29 04:17:19;;;;;;;2.70;1.93;;;;;;;9.94;81.92;97756.91;5096036;28;20227;-71
2022/05/29 04:19:47;;;;;;;3.43;2.10;;;;;;;9.90;85.48;97749.34;5095930;28;20207;-72
2022/05/29 04:22:16;;;;;;;2.47;2.27;;;;;;;10.09;84.11;97755.81;5098561;28;20226;-70
2022/05/29 04:24:42;;;;;;;3.10;2.33;;;;;;;10.21;83.68;97754.09;5095856;28;20215;-70
2022/05/29 04:27:11;;;;;;;3.47;2.00;;;;;;;10.14;85.57;97758.97;5095771;28;20239;-70
2022/05/29 04:29:38;;;;;;;4.40;2.17;;;;;;;9.94;87.64;97751.63;5102414;28;20212;-71
2022/05/29 04:34:53;;;;;;;3.03;2.30;;;;;;;9.74;91.11;97754.84;5094011;28;20213;-71
2022/05/29 04:37:20;;;;;;;4.63;2.17;;;;;;;9.51;92.88;97747.75;5095397;28;20692;-72
2022/05/29 04:39:46;;;;;;;3.73;2.37;;;;;;;9.43;92.83;97750.06;5097886;28;20211;-71
2022/05/29 04:42:13;;;;;;;3.80;2.10;;;;;;;9.45;92.45;97749.97;5095914;28;20224;-71
2022/05/29 04:44:39;;;;;;;4.30;2.40;;;;;;;9.37;92.40;97749.66;5095644;28;20610;-72
2022/05/29 04:47:06;;;;;;;3.80;2.27;;;;;;;9.37;92.38;97754.94;5095490;28;20241;-71
2022/05/29 04:49:32;;;;;;;2.93;2.27;;;;;;;9.47;91.67;97758.59;5097721;28;20206;-70
2022/05/29 04:52:00;;;;;;;3.57;2.20;;;;;;;9.47;93.52;97767.38;5096017;28;20726;-70
2022/05/29 04:54:27;;;;;;;3.20;2.20;;;;;;;9.70;93.09;97763.09;5095332;28;20207;-70
2022/05/29 04:56:53;;;;;;;4.03;2.50;;;;;;;9.85;91.11;97757.56;5104010;28;20233;-70
2022/05/29 04:59:19;;;;;;;2.73;2.00;;;;;;;9.99;87.76;97756.56;5097416;28;20217;-70
2022/05/29 05:01:46;;;;;;;3.20;2.03;;;;;;;10.04;88.84;97757.13;5096472;28;20222;-70
2022/05/29 05:04:12;;;;;;;2.97;2.10;;;;;;;10.15;86.26;97749.25;5095617;28;20214;-71
2022/05/29 05:06:39;;;;;;;2.70;1.73;;;;;;;10.32;85.79;97754.13;5095161;28;20244;-70
2022/05/29 05:09:07;;;;;;;6.07;2.20;;;;;;;10.47;85.66;97747.72;5100028;28;20219;-71
2022/05/29 05:11:34;;;;;;;1.80;1.70;;;;;;;10.63;83.94;97750.88;5100554;28;20217;-71
2022/05/29 05:14:00;;;;;;;2.57;1.80;;;;;;;10.80;83.32;97748.66;5099012;28;20210;-70
2022/05/29 05:16:27;;;;;;;2.17;1.90;;;;;;;11.02;81.69;97753.13;5099346;28;20221;-70
2022/05/29 05:18:54;;;;;;;4.07;1.90;;;;;;;11.24;81.41;97747.84;5099739;28;20214;-71
2022/05/29 05:21:20;;;;;;;4.50;1.90;;;;;;;11.55;79.07;97744.53;5101184;28;20239;-71
2022/05/29 05:23:47;;;;;;;2.90;1.77;;;;;;;11.82;78.83;97752.94;5107693;28;20298;-71
2022/05/29 05:26:15;;;;;;;3.10;1.73;;;;;;;12.23;74.87;97745.97;5097265;28;20231;-70
2022/05/29 05:28:42;;;;;;;2.97;1.50;;;;;;;12.73;73.74;97739.13;5099166;28;20644;-70
2022/05/29 05:31:08;;;;;;;4.47;2.07;;;;;;;12.96;71.62;97740.72;5113279;28;20221;-71
2022/05/29 05:33:35;;;;;;;4.13;1.87;;;;;;;12.88;68.84;97732.50;5098819;28;20218;-70
2022/05/29 05:36:01;;;;;;;2.47;1.80;;;;;;;12.81;68.85;97742.81;5098636;28;20228;-70
2022/05/29 05:38:28;;;;;;;2.87;1.80;;;;;;;12.60;68.97;97744.59;5098819;28;20222;-70
2022/05/29 05:40:54;;;;;;;1.93;1.73;;;;;;;12.66;71.14;97743.28;5110446;28;20677;-71
2022/05/29 05:43:22;;;;;;;3.97;1.73;;;;;;;12.96;69.22;97744.19;5113470;28;20286;-70
2022/05/29 05:45:49;;;;;;;1.60;1.50;;;;;;;13.15;68.12;97746.13;5112984;28;20242;-71
2022/05/29 05:48:16;;;;;;;3.13;1.50;;;;;;;13.27;67.98;97747.75;5113221;28;20232;-70
2022/05/29 05:50:43;;;;;;;3.17;1.63;;;;;;;13.06;65.25;97744.25;5110169;28;20219;-71
2022/05/29 05:53:10;;;;;;;1.50;1.33;;;;;;;12.86;66.88;97750.38;5111552;28;20220;-71
2022/05/29 05:55:39;;;;;;;3.63;1.70;;;;;;;12.91;68.01;97754.31;5112928;28;20597;-70
2022/05/29 05:58:05;;;;;;;1.93;1.50;;;;;;;13.05;65.80;97756.69;5113314;28;20269;-71
2022/05/29 06:00:33;;;;;;;2.07;1.50;;;;;;;12.90;66.46;97751.81;5110072;28;20220;-71
2022/05/29 06:03:00;;;;;;;2.27;1.40;;;;;;;12.81;66.95;97757.88;5112949;28;20218;-70
2022/05/29 06:05:27;;;;;;;2.50;1.60;;;;;;;12.78;66.95;97752.84;5112921;28;20217;-70
2022/05/29 06:07:54;;;;;;;2.53;1.53;;;;;;;12.79;67.68;97755.38;5112703;28;20270;-70
2022/05/29 06:10:20;;;;;;;2.27;1.37;;;;;;;13.06;66.07;97754.88;5110074;28;20214;-70
2022/05/29 06:12:47;;;;;;;2.47;1.60;;;;;;;13.01;66.52;97752.63;5112577;28;20214;-70
2022/05/29 06:15:13;;;;;;;2.37;1.57;;;;;;;13.95;62.35;97755.84;5112932;28;20221;-70
2022/05/29 06:17:42;;;;;;;3.70;1.67;;;;;;;14.96;58.14;97758.88;5111350;28;20213;-70
2022/05/29 06:20:09;;;;;;;2.00;1.50;;;;;;;15.77;54.20;97750.28;5109018;28;20217;-70
2022/05/29 06:22:37;;;;;;;2.60;1.60;;;;;;;16.34;52.64;97754.28;5112627;28;20214;-71
2022/05/29 06:25:04;;;;;;;2.50;1.50;;;;;;;16.31;52.13;97754.59;5112457;28;20211;-71
2022/05/29 06:27:35;;;;;;;2.00;1.27;;;;;;;16.17;53.26;97751.59;5112516;28;20232;-71
2022/05/29 06:30:01;;;;;;;3.37;1.40;;;;;;;16.28;51.47;97752.22;5104539;28;20225;-70
2022/05/29 06:32:28;;;;;;;2.60;1.50;;;;;;;16.41;50.94;97751.91;5097836;28;20225;-70
2022/05/29 06:34:56;;;;;;;3.67;1.40;;;;;;;17.45;48.57;97745.63;5097580;28;20226;-70
2022/05/29 06:37:22;;;;;;;2.83;1.30;;;;;;;18.07;45.98;97747.94;5103631;28;20213;-71
2022/05/29 06:39:49;;;;;;;3.57;1.13;;;;;;;18.77;44.93;97739.44;5101056;28;20239;-70
2022/05/29 06:42:15;;;;;;;2.03;1.40;;;;;;;19.11;43.40;97747.31;5097554;28;20219;-70
2022/05/29 06:44:42;;;;;;;2.23;1.40;;;;;;;18.38;44.42;97749.09;5095769;28;20266;-70
2022/05/29 06:47:09;;;;;;;2.53;1.30;;;;;;;17.01;47.46;97757.28;5097458;28;20235;-70
2022/05/29 06:49:37;;;;;;;2.13;1.50;;;;;;;16.01;50.57;97758.59;5099877;28;20591;-70
2022/05/29 06:52:08;;;;;;;2.40;1.40;;;;;;;15.89;51.51;97759.75;5097101;28;20226;-70
2022/05/29 06:54:35;;;;;;;3.63;1.53;;;;;;;16.04;49.99;97753.78;5097219;28;20553;-70
2022/05/29 06:57:01;;;;;;;2.90;1.40;;;;;;;16.53;50.10;97751.50;5097058;28;20226;-70
2022/05/29 06:59:28;;;;;;;3.97;1.40;;;;;;;16.71;48.95;97755.03;5099995;28;20217;-70
2022/05/29 07:07:24;;;;;;;2.30;1.10;;;;;;;15.88;53.30;97768.75;5099433;28;20304;-70
2022/05/29 07:09:50;;;;;;;3.90;1.73;;;;;;;15.51;52.23;97774.06;5095261;28;20229;-69
2022/05/29 07:12:21;;;;;;;2.33;1.50;;;;;;;15.17;53.67;97782.66;5096556;28;20679;-70
2022/05/29 07:14:51;;;;;;;3.47;1.50;;;;;;;14.83;54.76;97781.44;5096827;28;20218;-71
2022/05/29 07:17:19;;;;;;;3.77;1.53;;;;;;;14.70;55.07;97781.72;5108954;28;20217;-71
2022/05/29 07:19:46;;;;;;;3.57;1.57;;;;;;;14.60;55.48;97782.72;5111308;28;20217;-70
2022/05/29 07:22:12;;;;;;;5.13;1.60;;;;;;;14.49;55.34;97785.50;5111587;28;20214;-70
2022/05/29 07:24:41;;;;;;;2.57;1.30;;;;;;;14.57;55.81;97785.63;5111428;28;20215;-70
2022/05/29 07:27:08;;;;;;;1.53;1.13;;;;;;;14.50;55.62;97792.50;5108660;28;20242;-72
2022/05/29 07:29:35;;;;;;;3.50;1.73;;;;;;;14.25;56.70;97785.03;5106874;28;20213;-69
2022/05/29 07:32:02;;;;;;;6.00;2.10;;;;;;;14.17;58.74;97784.84;5106080;28;20221;-71
2022/05/29 07:34:29;;;;;;;2.73;1.40;;;;;;;14.22;58.53;97782.63;5111218;28;20252;-71
2022/05/29 07:37:02;;;;;;;4.83;1.70;;;;;;;14.21;58.72;97781.81;5106664;28;20222;-70
2022/05/29 07:39:28;;;;;;;3.73;1.80;;;;;;;14.20;60.32;97776.63;5110775;28;20210;-70
2022/05/29 07:44:41;;;;;;;3.40;1.70;;;;;;;14.61;61.44;97789.72;5107015;28;20248;-70
2022/05/29 07:47:08;;;;;;;2.47;1.67;;;;;;;14.74;59.80;97795.59;5094937;28;20246;-70
2022/05/29 07:49:34;;;;;;;2.70;1.50;;;;;;;14.95;58.71;97789.16;5096003;28;20210;-74
2022/05/29 07:52:00;;;;;;;2.57;1.60;;;;;;;15.00;58.20;97796.69;5099286;28;20220;-76
2022/05/29 07:54:27;;;;;;;3.63;1.77;;;;;;;14.89;59.90;97804.81;5099942;28;20215;-75
2022/05/29 07:56:53;;;;;;;5.00;1.80;;;;;;;14.68;60.06;97806.78;5096449;28;20210;-74
2022/05/29 07:59:22;;;;;;;2.40;1.53;;;;;;;14.71;59.26;97795.84;5096184;28;20206;-76
2022/05/29 08:01:48;;;;;;;2.33;1.67;;;;;;;14.87;58.17;97801.47;5094084;28;20214;-72
2022/05/29 08:04:15;;;;;;;5.23;1.87;;;;;;;14.91;57.95;97809.03;5098033;28;20218;-74
2022/05/29 08:06:42;;;;;;;4.03;1.80;;;;;;;15.04;57.47;97808.75;5096497;28;20240;-75
2022/05/29 08:09:09;;;;;;;3.03;1.50;;;;;;;15.29;57.23;97800.16;5095629;28;20263;-76
2022/05/29 08:11:36;;;;;;;3.00;1.70;;;;;;;15.57;56.89;97804.63;5095565;28;20230;-72
2022/05/29 08:14:04;;;;;;;3.33;1.80;;;;;;;15.75;54.89;97803.72;5092751;28;20215;-74
2022/05/29 08:16:31;;;;;;;4.27;1.80;;;;;;;15.60;54.40;97799.00;5108493;28;20263;-74
2022/05/29 08:18:58;;;;;;;3.00;1.63;;;;;;;15.46;54.22;97802.94;5098397;28;20218;-72
2022/05/29 08:21:25;;;;;;;2.70;1.60;;;;;;;15.13;55.45;97789.25;5108697;28;20206;-75
2022/05/29 08:32:02;;;;;;;4.17;1.60;;;;;;;15.83;53.98;97797.66;5109065;28;20296;-75
2022/05/29 08:34:28;;;;;;;4.67;1.70;;;;;;;15.85;54.21;97795.69;5108122;28;20211;-75
2022/05/29 08:36:55;;;;;;;2.60;1.50;;;;;;;16.14;52.63;97781.22;5111781;28;20236;-76
2022/05/29 08:39:22;;;;;;;3.53;1.60;;;;;;;16.30;51.22;97792.09;5112588;28;20222;-76
2022/05/29 08:41:52;;;;;;;3.47;1.70;;;;;;;16.19;52.06;97785.13;5109442;28;20206;-76
2022/05/29 08:44:24;;;;;;;3.33;1.60;;;;;;;16.28;51.10;97789.56;5111864;28;20714;-76
2022/05/29 08:46:55;;;;;;;2.70;1.60;;;;;;;16.08;51.04;97788.00;5116348;28;20237;-74
2022/05/29 08:49:27;;;;;;;4.03;1.63;;;;;;;16.12;51.14;97782.38;5112565;28;20214;-74
2022/05/29 08:52:08;;;;;;;3.40;1.73;;;;;;;15.94;51.77;97798.31;5112535;28;20214;-75
2022/05/29 08:54:48;;;;;;;4.30;1.60;;;;;;;15.57;53.06;97791.31;5098898;28;20618;-75
2022/05/29 08:57:31;;;;;;;3.83;1.57;;;;;;;15.36;53.15;97793.31;5116228;28;20213;-74
2022/05/29 09:00:00;;;;;;;3.03;1.50;;;;;;;15.33;53.54;97798.94;5112579;28;20210;-76
2022/05/29 09:02:40;;;;;;;4.00;1.67;;;;;;;15.16;54.17;97794.31;5112537;28;20210;-75
2022/05/29 09:05:14;;;;;;;4.20;2.10;;;;;;;15.08;55.19;97796.81;5115694;28;20338;-77
2022/05/29 09:07:42;;;;;;;2.67;1.40;;;;;;;15.00;55.17;97791.38;5111815;28;20593;-77
2022/05/29 09:10:14;;;;;;;3.13;1.60;;;;;;;15.06;55.39;97785.47;5103050;28;20223;-72
2022/05/29 09:12:45;;;;;;;4.40;1.60;;;;;;;15.10;55.46;97797.53;5112354;28;20228;-73
2022/05/29 09:15:16;;;;;;;3.47;1.73;;;;;;;14.98;54.76;97788.03;5114762;28;20307;-73
2022/05/29 09:17:50;;;;;;;3.80;1.80;;;;;;;15.02;53.83;97784.94;5114094;28;20221;-74
2022/05/29 09:20:27;;;;;;;4.13;1.80;;;;;;;14.87;53.58;97790.81;5113226;28;20214;-74
2022/05/29 09:22:56;;;;;;;4.67;1.57;;;;;;;14.92;54.77;97784.09;5115008;28;20220;-74
2022/05/29 09:25:29;;;;;;;2.07;1.50;;;;;;;14.89;54.00;97795.03;5112664;28;20224;-75
2022/05/29 09:28:00;;;;;;;5.30;1.70;;;;;;;14.79;54.17;97793.34;5104306;28;20590;-74
2022/05/29 09:30:26;;;;;;;3.13;1.47;;;;;;;14.88;55.10;97781.84;5115694;28;20216;-74
2022/05/29 09:32:56;;;;;;;3.87;1.47;;;;;;;15.00;54.83;97780.72;5112704;28;20221;-74
2022/05/29 09:35:31;;;;;;;2.87;1.60;;;;;;;14.98;54.08;97782.69;5112644;28;20221;-74
2022/05/29 09:38:02;;;;;;;3.83;1.57;;;;;;;15.01;54.33;97782.41;5114337;28;20217;-75
2022/05/29 09:40:33;;;;;;;6.47;1.60;;;;;;;14.97;55.10;97787.16;5110256;28;20220;-74
2022/05/29 09:43:14;;;;;;;4.20;1.80;;;;;;;15.07;55.83;97789.81;5112507;28;20232;-75
2022/05/29 09:45:41;;;;;;;2.47;1.33;;;;;;;15.33;55.13;97783.78;5104345;28;20209;-75
2022/05/29 09:51:09;;;;;;;2.47;1.37;;;;;;;15.06;54.38;97790.81;5110618;28;20686;-73
2022/05/29 09:53:45;;;;;;;3.90;1.60;;;;;;;15.07;55.12;97781.84;5110768;28;20580;-74
2022/05/29 09:56:12;;;;;;;2.37;1.50;;;;;;;15.36;54.73;97790.66;5114696;28;20213;-72
2022/05/29 09:58:46;;;;;;;4.67;1.57;;;;;;;15.46;54.25;97783.50;5107680;28;20213;-69
2022/05/29 10:01:26;;;;;;;2.20;1.43;;;;;;;15.63;54.65;97788.06;5105694;28;20221;-73
2022/05/29 10:03:55;;;;;;;3.53;1.37;;;;;;;15.65;53.07;97786.09;5104705;28;20214;-74
2022/05/29 10:06:29;;;;;;;2.43;1.30;;;;;;;15.83;52.95;97789.66;5095992;28;20680;-72
2022/05/29 10:09:09;;;;;;;3.10;1.30;;;;;;;15.85;53.32;97790.34;5109217;28;20275;-72
2022/05/29 10:11:36;;;;;;;3.40;1.43;;;;;;;16.02;51.77;97784.25;5097386;28;20684;-73
2022/05/29 10:14:21;;;;;;;3.20;1.60;;;;;;;16.16;52.18;97784.59;5112427;28;20213;-74
2022/05/29 10:16:49;;;;;;;3.97;1.60;;;;;;;16.33;51.82;97792.63;5101632;28;20221;-74
2022/05/29 10:19:32;;;;;;;2.13;1.50;;;;;;;16.44;50.06;97795.13;5113371;28;20218;-72
2022/05/29 10:22:02;;;;;;;3.83;1.43;;;;;;;16.50;49.44;97783.84;5112379;28;20217;-69
2022/05/29 10:24:36;;;;;;;3.30;1.43;;;;;;;16.74;49.48;97786.75;5100605;28;20572;-67
2022/05/29 10:27:04;;;;;;;3.13;1.40;;;;;;;16.63;50.10;97788.81;5112540;28;20266;-70
2022/05/29 10:29:35;;;;;;;2.97;1.30;;;;;;;16.73;48.45;97787.75;5104569;28;20276;-70
2022/05/29 10:32:05;;;;;;;3.33;1.47;;;;;;;16.78;49.16;97782.81;5108661;28;20214;-73
2022/05/29 10:34:36;;;;;;;3.73;1.10;;;;;;;16.68;48.66;97782.03;5111050;28;20206;-74
2022/05/29 10:37:28;;;;;;;3.37;1.40;;;;;;;16.69;49.35;97789.03;5110780;28;20266;-73
2022/05/29 10:40:12;;;;;;;3.43;1.70;;;;;;;16.63;48.94;97786.16;5098155;28;20217;-73
2022/05/29 10:42:45;;;;;;;5.20;1.70;;;;;;;16.36;49.55;97781.66;5095578;28;20206;-73
2022/05/29 10:45:22;;;;;;;3.93;1.73;;;;;;;16.09;50.37;97779.00;5094533;28;20245;-75
2022/05/29 10:48:24;;;;;;;5.53;1.67;;;;;;;15.98;50.62;97781.03;5098792;28;20233;-70
2022/05/29 10:51:09;;;;;;;3.00;1.43;;;;;;;15.92;51.85;97780.78;5096639;28;20210;-70
2022/05/29 10:53:49;;;;;;;2.63;1.40;;;;;;;15.85;51.84;97791.19;5097496;28;20678;-70
2022/05/29 10:56:26;;;;;;;2.80;1.50;;;;;;;15.76;54.90;97791.25;5096796;28;20217;-70
2022/05/29 10:59:10;;;;;;;2.77;1.43;;;;;;;15.36;57.02;97790.66;5102400;28;20220;-73
2022/05/29 11:04:46;;;;;;;2.90;1.50;;;;;;;15.09;58.33;97794.03;5106212;28;20290;-73
2022/05/29 11:07:28;;;;;;;2.43;1.60;;;;;;;14.77;59.92;97788.16;5111618;28;20206;-70
2022/05/29 11:10:12;;;;;;;3.50;1.57;;;;;;;14.46;62.06;97797.25;5102593;28;20214;-69
2022/05/29 11:12:50;;;;;;;4.20;1.90;;;;;;;14.54;62.97;97797.38;5107367;28;20594;-70
2022/05/29 11:15:27;;;;;;;5.03;1.60;;;;;;;14.59;61.97;97794.31;5104992;28;20452;-70
2022/05/29 11:18:17;;;;;;;4.50;1.87;;;;;;;14.49;62.08;97790.81;5108321;28;20221;-70
2022/05/29 11:20:57;;;;;;;1.60;1.47;;;;;;;14.50;61.22;97795.16;5111700;28;20218;-71
2022/05/29 11:23:39;;;;;;;2.60;1.53;;;;;;;14.53;61.90;97797.50;5109466;28;20219;-70
2022/05/29 11:26:17;;;;;;;3.33;1.63;;;;;;;14.42;61.30;97793.19;5110095;28;20580;-70
2022/05/29 11:28:57;;;;;;;4.03;1.70;;;;;;;14.46;61.01;97785.75;5107620;28;20239;-70
2022/05/29 11:31:39;;;;;;;2.30;1.30;;;;;;;14.56;59.68;97794.59;5098798;28;20210;-70
2022/05/29 11:34:26;;;;;;;3.23;1.53;;;;;;;14.59;55.51;97791.66;5094911;28;20224;-71
2022/05/29 11:37:09;;;;;;;2.23;1.27;;;;;;;14.53;54.05;97802.84;5096592;28;20263;-70
2022/05/29 11:39:40;;;;;;;1.93;1.20;;;;;;;14.47;55.38;97790.94;5092005;28;20219;-71
2022/05/29 11:42:15;;;;;;;3.07;1.43;;;;;;;14.49;54.88;97788.97;5094332;28;20210;-72
2022/05/29 11:44:51;;;;;;;3.63;1.43;;;;;;;14.45;54.85;97789.41;5095054;28;20230;-73
2022/05/29 11:53:07;;;;;;;2.50;1.30;;;;;;;14.10;54.96;97773.06;5098265;28;20213;-70
2022/05/29 11:55:38;;;;;;;2.97;1.30;;;;;;;13.99;57.78;97791.81;5109362;28;20221;-70
2022/05/29 11:58:11;;;;;;;1.63;1.03;;;;;;;13.99;57.26;97774.03;5109898;28;20209;-70
2022/05/29 12:00:41;;;;;;;2.87;1.47;;;;;;;14.04;59.85;97778.91;5097470;28;20237;-71
2022/05/29 12:03:22;;;;;;;2.83;1.60;;;;;;;13.61;66.92;97776.53;5107650;28;20445;-71
2022/05/29 12:05:53;;;;;;;3.37;1.83;;;;;;;12.82;70.57;97781.63;5110022;28;20220;-72
2022/05/29 12:08:26;;;;;;;4.23;1.70;;;;;;;12.44;78.04;97785.75;5108362;28;20252;-72
2022/05/29 12:11:04;;;;;;;3.13;1.60;;;;;;;12.23;84.23;97782.22;5109157;28;20760;-74
2022/05/29 12:13:36;;;;;;;3.10;1.50;;;;;;;12.27;85.21;97778.34;5109836;28;20233;-72
2022/05/29 12:16:08;;;;;;;3.10;2.13;;;;;;;12.54;93.96;97773.44;5096965;28;20212;-72
2022/05/29 12:18:43;;;;;;;4.67;2.23;;;;;;;13.05;98.84;97774.41;5098266;28;20221;-72
2022/05/29 12:21:15;;;;;;;5.10;2.20;;;;;;;13.43;98.11;97766.66;5110137;28;20219;-73
2022/05/29 12:23:45;;;;;;;2.83;1.97;;;;;;;13.49;93.03;97771.44;5110422;28;20210;-72
2022/05/29 12:26:16;;;;;;;2.10;1.80;;;;;;;13.44;93.14;97769.19;5097992;28;20217;-73